Time;durP1;ratioP1;P1;durP2;ratioP2;P2;SDS_P1;SDS_P2;PMS_P1;PMS_P2;Temp;Humidity;BMP_temperature;BMP_pressure;BME280_temperature;BME280_humidity;BME280_pressure;Samples;Min_cycle;Max_cycle;Signal;HPM_P1;HPM_P2
2022/06/09 00:01:06;;;;;;;19.38;13.82;;;;;;;30.62;63.04;100648.75;5050379;28;65211;-38
2022/06/09 00:03:54;;;;;;;17.02;11.50;;;;;;;30.75;63.60;100660.50;5039900;28;70891;-38
2022/06/09 00:06:32;;;;;;;11.43;9.20;;;;;;;30.75;63.61;100664.03;5048795;28;66438;-38
2022/06/09 00:09:04;;;;;;;10.57;7.93;;;;;;;31.07;63.52;100721.63;5044603;28;69624;-38
2022/06/09 00:11:41;;;;;;;10.20;7.82;;;;;;;30.86;64.22;100686.84;5042660;28;66552;-40
2022/06/09 00:14:12;;;;;;;16.40;8.70;;;;;;;31.13;64.25;100739.69;5042647;28;69045;-38
2022/06/09 00:16:43;;;;;;;12.63;9.27;;;;;;;31.16;64.87;100741.13;5045013;28;67125;-39
2022/06/09 00:19:16;;;;;;;12.88;10.85;;;;;;;31.24;63.96;100745.41;5046898;28;69281;-39
2022/06/09 00:21:47;;;;;;;15.05;10.68;;;;;;;31.33;64.28;100752.19;5046880;28;65342;-39
2022/06/09 00:24:18;;;;;;;16.52;8.65;;;;;;;31.33;64.55;100754.91;5047502;28;69050;-37
2022/06/09 00:26:49;;;;;;;12.50;10.57;;;;;;;31.37;63.60;100745.28;5043733;28;68748;-37
2022/06/09 00:29:20;;;;;;;11.40;10.20;;;;;;;31.40;63.98;100747.56;5044974;28;69485;-37
2022/06/09 00:31:51;;;;;;;17.60;10.52;;;;;;;31.48;63.75;100752.66;5044789;28;66037;-37
2022/06/09 00:34:22;;;;;;;14.30;11.07;;;;;;;31.51;63.39;100757.63;5042649;28;69521;-37
2022/06/09 00:36:52;;;;;;;25.88;12.15;;;;;;;31.60;62.64;100760.84;5043178;28;66419;-37
2022/06/09 00:39:23;;;;;;;18.80;11.98;;;;;;;31.63;63.31;100765.00;5047029;28;69634;-38
2022/06/09 00:41:55;;;;;;;15.73;11.30;;;;;;;31.66;62.91;100769.97;5050151;28;66548;-38
2022/06/09 00:44:29;;;;;;;20.95;14.68;;;;;;;31.73;62.99;100762.56;5042542;28;70039;-38
2022/06/09 00:47:05;;;;;;;23.83;16.67;;;;;;;31.74;63.54;100759.63;5043275;28;65198;-37
2022/06/09 00:49:45;;;;;;;25.58;17.92;;;;;;;31.84;62.31;100756.34;5043383;28;70802;-38
2022/06/09 00:52:21;;;;;;;19.25;15.98;;;;;;;31.99;61.10;100756.81;5050129;28;65841;-39
2022/06/09 00:54:59;;;;;;;17.77;15.27;;;;;;;31.76;61.05;100710.56;5046417;28;69688;-38
2022/06/09 00:57:35;;;;;;;17.13;13.93;;;;;;;31.86;60.30;100708.13;5047763;28;65699;-39
2022/06/09 01:00:13;;;;;;;18.40;14.40;;;;;;;32.23;60.25;100762.28;5050269;28;70164;-39
2022/06/09 01:02:45;;;;;;;16.00;13.65;;;;;;;32.24;59.61;100747.66;5050080;28;66144;-38
2022/06/09 01:05:19;;;;;;;15.02;13.45;;;;;;;32.37;59.11;100761.00;5050274;28;69919;-38
2022/06/09 01:07:54;;;;;;;23.55;13.10;;;;;;;32.40;59.28;100766.00;5045119;28;67335;-39
2022/06/09 01:10:28;;;;;;;18.52;12.65;;;;;;;32.44;58.85;100761.75;5046625;28;70221;-38
2022/06/09 01:12:59;;;;;;;16.25;13.05;;;;;;;32.51;58.57;100771.69;5041096;28;65336;-39
2022/06/09 01:16:05;;;;;;;14.05;12.90;;;;;;;32.38;59.19;100773.53;5047481;28;70662;-39
2022/06/09 01:19:05;;;;;;;15.93;11.85;;;;;;;32.47;58.68;100761.31;5046602;28;66544;-39
2022/06/09 01:21:51;;;;;;;12.90;11.68;;;;;;;32.59;58.32;100764.03;5043789;28;70199;-38
2022/06/09 01:24:32;;;;;;;14.82;11.60;;;;;;;32.58;58.00;100739.84;5047108;28;65362;-38
2022/06/09 01:27:08;;;;;;;13.57;11.80;;;;;;;32.73;57.45;100759.19;5046438;28;70462;-38
2022/06/09 01:30:17;;;;;;;12.32;10.95;;;;;;;32.71;57.60;100762.16;5052240;28;66592;-39
2022/06/09 01:33:13;;;;;;;11.93;10.63;;;;;;;32.71;57.46;100761.34;5052781;28;70099;-38
2022/06/09 01:36:27;;;;;;;10.82;9.90;;;;;;;32.78;57.27;100753.88;5046940;28;66287;-38
2022/06/09 01:39:02;;;;;;;11.73;10.48;;;;;;;32.87;57.03;100760.59;5046648;28;69768;-38
2022/06/09 01:41:34;;;;;;;12.25;10.75;;;;;;;32.90;56.59;100757.44;5050777;28;66337;-38
2022/06/09 01:44:04;;;;;;;;;;;;;;;32.62;57.60;100757.31;5045383;28;70089;-38
2022/06/09 01:46:37;;;;;;;10.40;9.30;;;;;;;32.96;56.56;100752.09;5043194;28;66515;-38
2022/06/09 01:49:12;;;;;;;9.80;8.77;;;;;;;32.89;56.35;100725.88;5045420;28;69918;-38
2022/06/09 01:51:46;;;;;;;10.15;9.23;;;;;;;32.65;56.32;100681.63;5043601;28;66092;-39
2022/06/09 01:54:30;;;;;;;10.73;9.77;;;;;;;33.00;56.25;100742.44;5040883;28;70676;-38
2022/06/09 01:57:15;;;;;;;9.57;8.68;;;;;;;33.09;56.20;100758.13;5041102;28;66802;-38
2022/06/09 01:59:54;;;;;;;10.75;9.88;;;;;;;32.77;55.94;100697.91;5047061;28;69696;-38
2022/06/09 02:02:36;;;;;;;9.63;8.75;;;;;;;32.79;55.75;100693.06;5042920;28;66093;-38
2022/06/09 02:05:13;;;;;;;10.60;9.60;;;;;;;33.19;55.83;100757.56;5047932;28;69153;-38
2022/06/09 02:07:46;;;;;;;9.48;8.50;;;;;;;32.89;55.59;100706.03;5043405;28;66615;-38
2022/06/09 02:10:22;;;;;;;9.82;9.05;;;;;;;32.91;55.72;100696.59;5042342;28;69699;-38
2022/06/09 02:12:52;;;;;;;10.98;8.98;;;;;;;33.30;55.31;100756.69;5040401;28;66648;-42
2022/06/09 02:15:33;;;;;;;9.40;8.67;;;;;;;33.31;55.45;100743.91;5046714;28;70338;-42
2022/06/09 02:18:10;;;;;;;9.30;8.60;;;;;;;33.35;55.41;100735.06;5038700;28;66337;-39
2022/06/09 02:20:44;;;;;;;8.48;7.78;;;;;;;33.18;55.32;100687.94;5045995;28;70049;-37
2022/06/09 02:23:16;;;;;;;9.32;8.60;;;;;;;33.40;55.18;100718.00;5039797;28;65782;-37
2022/06/09 02:25:46;;;;;;;8.68;7.80;;;;;;;33.42;54.87;100712.34;5039546;28;68997;-38
2022/06/09 02:28:17;;;;;;;8.10;7.50;;;;;;;33.43;55.25;100719.41;5054909;28;66307;-38
2022/06/09 02:30:48;;;;;;;8.75;7.97;;;;;;;33.49;55.07;100722.00;5044935;28;69796;-39
2022/06/09 02:33:20;;;;;;;7.85;7.25;;;;;;;33.49;55.02;100718.44;5039115;28;64982;-38
2022/06/09 02:35:52;;;;;;;9.40;8.50;;;;;;;33.51;54.96;100710.88;5048908;28;69449;-39
2022/06/09 02:38:26;;;;;;;9.20;8.00;;;;;;;33.54;54.96;100707.69;5043363;28;66182;-41
2022/06/09 02:40:57;;;;;;;8.05;7.47;;;;;;;33.56;54.67;100709.09;5048597;28;70075;-40
2022/06/09 02:43:27;;;;;;;8.38;7.43;;;;;;;33.48;55.08;100695.03;5046883;28;66118;-39
2022/06/09 02:45:59;;;;;;;7.87;7.23;;;;;;;33.59;54.75;100702.34;5042696;28;71711;-39
2022/06/09 02:48:34;;;;;;;9.70;7.28;;;;;;;33.62;54.70;100709.22;5045428;28;66098;-39
2022/06/09 02:51:18;;;;;;;7.75;7.05;;;;;;;33.63;54.41;100691.81;5000694;28;70401;-41
2022/06/09 02:53:49;;;;;;;7.75;7.15;;;;;;;33.59;54.72;100686.88;5045257;28;66334;-39
2022/06/09 02:56:21;;;;;;;7.37;6.70;;;;;;;33.65;54.73;100679.63;5044569;28;70745;-46
2022/06/09 02:58:52;;;;;;;8.77;6.50;;;;;;;33.67;54.60;100682.94;5053110;28;65073;-39
2022/06/09 03:01:25;;;;;;;7.40;6.85;;;;;;;33.61;54.35;100662.16;5046635;28;69446;-39
2022/06/09 03:03:56;;;;;;;7.18;6.47;;;;;;;33.66;54.56;100662.25;5049619;28;65532;-39
2022/06/09 03:06:27;;;;;;;8.15;7.38;;;;;;;33.72;54.50;100661.25;5041832;28;70439;-38
2022/06/09 03:08:58;;;;;;;7.30;6.63;;;;;;;33.75;54.25;100662.66;5047213;28;65386;-38
2022/06/09 03:11:29;;;;;;;7.18;6.57;;;;;;;33.75;54.40;100658.06;5044458;28;70253;-39
2022/06/09 03:14:00;;;;;;;7.32;6.57;;;;;;;33.78;54.54;100663.00;5044671;28;66658;-38
2022/06/09 03:16:30;;;;;;;6.63;6.13;;;;;;;33.78;54.24;100652.13;5049172;28;70250;-39
2022/06/09 03:19:01;;;;;;;7.32;6.72;;;;;;;33.81;54.31;100651.63;5052225;28;67113;-39
2022/06/09 03:21:32;;;;;;;7.65;6.95;;;;;;;33.75;54.40;100635.47;5042319;28;71004;-38
2022/06/09 03:24:03;;;;;;;7.55;6.85;;;;;;;33.84;54.34;100641.31;5046024;28;66286;-38
2022/06/09 03:26:34;;;;;;;7.90;7.13;;;;;;;33.90;54.16;100648.50;5048803;28;69316;-38
2022/06/09 03:29:05;;;;;;;10.65;6.78;;;;;;;33.92;53.90;100646.34;5054067;28;65629;-38
2022/06/09 03:31:36;;;;;;;7.38;6.78;;;;;;;33.90;54.14;100638.44;5054523;28;69981;-39
2022/06/09 03:34:07;;;;;;;6.95;6.45;;;;;;;33.92;54.24;100630.84;5050751;28;66833;-39
2022/06/09 03:36:38;;;;;;;7.20;6.50;;;;;;;33.96;54.05;100625.72;5045135;28;70943;-38
2022/06/09 03:39:10;;;;;;;9.18;6.22;;;;;;;34.00;53.94;100635.06;5048431;28;66415;-38
2022/06/09 03:41:41;;;;;;;7.07;6.45;;;;;;;34.01;53.72;100628.53;5051538;28;70157;-37
2022/06/09 03:44:11;;;;;;;7.20;6.60;;;;;;;34.01;53.90;100628.53;5036980;28;65873;-38
2022/06/09 03:46:43;;;;;;;6.75;6.35;;;;;;;34.03;53.97;100632.66;5045667;28;70561;-37
2022/06/09 03:49:14;;;;;;;7.20;6.55;;;;;;;34.00;53.80;100621.47;5042550;28;66549;-38
2022/06/09 03:51:45;;;;;;;7.20;6.60;;;;;;;34.04;53.92;100622.59;5042930;28;68944;-38
2022/06/09 03:54:16;;;;;;;7.20;6.50;;;;;;;34.13;53.47;100632.03;5047629;28;66093;-38
2022/06/09 03:56:48;;;;;;;6.15;5.72;;;;;;;34.16;53.69;100625.28;5043406;28;70087;-38
2022/06/09 03:59:18;;;;;;;7.55;6.57;;;;;;;34.08;53.73;100593.03;5051094;28;66038;-38
2022/06/09 04:01:49;;;;;;;6.78;6.20;;;;;;;34.21;53.61;100601.69;5044570;28;70206;-38
2022/06/09 04:04:21;;;;;;;8.77;6.70;;;;;;;34.21;53.58;100600.84;5046711;28;66221;-38
2022/06/09 04:06:52;;;;;;;7.07;6.47;;;;;;;34.24;53.69;100601.19;5047168;28;70142;-39
2022/06/09 04:09:22;;;;;;;10.38;6.60;;;;;;;34.27;53.61;100605.31;5049803;28;65598;-39
2022/06/09 04:11:53;;;;;;;6.78;6.38;;;;;;;34.31;53.47;100601.00;5046717;28;69360;-38
2022/06/09 04:14:24;;;;;;;8.40;6.17;;;;;;;34.31;53.49;100594.72;5040978;28;67517;-38
2022/06/09 04:16:55;;;;;;;7.95;6.40;;;;;;;34.25;53.46;100581.03;5043438;28;69907;-38
2022/06/09 04:19:27;;;;;;;6.85;6.30;;;;;;;34.37;53.39;100593.72;5045998;28;65901;-38
2022/06/09 04:21:58;;;;;;;6.88;6.38;;;;;;;34.37;53.47;100591.00;5046450;28;69366;-38
2022/06/09 04:24:29;;;;;;;7.32;6.82;;;;;;;34.40;53.53;100593.22;5051814;28;65902;-38
2022/06/09 04:27:00;;;;;;;6.93;6.43;;;;;;;34.38;53.38;100573.56;5045781;28;69803;-39
2022/06/09 04:29:31;;;;;;;7.78;6.35;;;;;;;34.40;53.04;100568.72;5050479;28;66321;-40
2022/06/09 04:32:02;;;;;;;7.53;6.93;;;;;;;34.38;53.31;100559.97;5039971;28;70600;-39
2022/06/09 04:34:33;;;;;;;7.70;6.07;;;;;;;34.40;52.90;100560.53;5046090;28;67942;-38
2022/06/09 04:37:04;;;;;;;6.73;6.23;;;;;;;34.49;53.36;100580.81;5045194;28;69682;-39
2022/06/09 04:39:35;;;;;;;7.07;5.93;;;;;;;34.51;53.38;100567.75;5049647;28;66475;-38
2022/06/09 04:42:05;;;;;;;5.97;5.47;;;;;;;34.43;52.78;100543.69;5049175;28;69461;-38
2022/06/09 04:44:37;;;;;;;6.90;6.40;;;;;;;34.55;53.19;100557.19;5048689;28;66018;-38
2022/06/09 04:47:07;;;;;;;6.45;5.95;;;;;;;34.57;52.94;100550.44;5046978;28;70460;-38
2022/06/09 04:49:38;;;;;;;7.57;6.03;;;;;;;34.58;53.00;100549.38;5045139;28;66304;-39
2022/06/09 04:52:09;;;;;;;6.95;6.35;;;;;;;34.62;53.01;100547.78;5048927;28;70491;-38
2022/06/09 04:54:42;;;;;;;5.88;5.47;;;;;;;34.59;52.65;100542.03;5044963;28;65527;-39
2022/06/09 04:57:13;;;;;;;6.25;5.85;;;;;;;34.63;52.61;100552.16;5047016;28;70447;-38
2022/06/09 04:59:44;;;;;;;6.23;5.80;;;;;;;34.65;52.66;100536.38;5052227;28;66132;-37
2022/06/09 05:02:15;;;;;;;10.73;5.63;;;;;;;34.64;52.47;100523.84;5053914;28;70326;-38
2022/06/09 05:04:46;;;;;;;5.68;5.38;;;;;;;34.66;52.61;100527.13;5043651;28;65690;-38
2022/06/09 05:07:19;;;;;;;5.60;5.15;;;;;;;34.74;52.34;100522.31;5041620;28;43132;-38
2022/06/09 05:09:50;;;;;;;5.97;5.40;;;;;;;34.77;52.33;100527.25;5050837;28;65630;-38
2022/06/09 05:12:21;;;;;;;7.63;6.15;;;;;;;34.73;52.15;100512.50;5052273;28;69722;-38
2022/06/09 05:14:53;;;;;;;;;;;;;;;34.48;53.21;100516.53;5044666;28;67235;-39
2022/06/09 05:17:23;;;;;;;5.82;5.30;;;;;;;34.79;52.23;100516.91;5040231;28;70840;-39
2022/06/09 05:19:55;;;;;;;;;;;;;;;34.37;52.75;100493.78;5044915;28;65707;-38
2022/06/09 05:22:25;;;;;;;5.63;5.07;;;;;;;34.88;52.20;100512.66;5047900;28;70354;-38
2022/06/09 05:24:59;;;;;;;5.60;5.07;;;;;;;34.90;52.12;100518.66;5046637;28;66967;-38
2022/06/09 05:27:30;;;;;;;8.38;5.28;;;;;;;34.94;51.59;100511.63;5046726;28;70659;-38
2022/06/09 05:30:00;;;;;;;5.07;4.77;;;;;;;34.97;51.81;100510.31;5044495;28;65666;-38
2022/06/09 05:32:31;;;;;;;5.00;4.50;;;;;;;34.96;51.64;100509.47;5041430;28;70226;-38
2022/06/09 05:35:02;;;;;;;5.40;4.90;;;;;;;35.02;51.66;100503.00;5045349;28;66129;-38
2022/06/09 05:46:06;;;;;;;4.70;4.28;;;;;;;35.14;51.25;100498.22;5048280;28;66455;-38
2022/06/09 05:48:37;;;;;;;4.22;3.78;;;;;;;35.17;51.05;100482.44;5040841;28;70031;-37
2022/06/09 05:51:08;;;;;;;3.67;3.37;;;;;;;35.17;51.22;100477.00;5043607;28;64949;-37
2022/06/09 05:53:39;;;;;;;5.20;4.00;;;;;;;35.21;51.30;100473.47;5039325;28;69709;-37
2022/06/09 05:56:10;;;;;;;4.05;3.75;;;;;;;35.23;50.86;100481.41;5055387;27;66200;-37
2022/06/09 05:58:41;;;;;;;7.35;4.50;;;;;;;35.27;50.89;100469.72;5043451;28;70686;-38
2022/06/09 06:01:13;;;;;;;4.68;4.30;;;;;;;35.30;50.75;100471.94;5041885;28;65806;-38
2022/06/09 06:03:44;;;;;;;6.50;4.10;;;;;;;35.34;50.52;100469.50;5043053;28;70204;-38
2022/06/09 06:06:33;;;;;;;3.45;3.25;;;;;;;35.29;50.76;100462.09;5040654;28;65465;-38
2022/06/09 06:09:16;;;;;;;3.75;3.47;;;;;;;35.42;50.36;100466.28;5042789;28;69470;-38
2022/06/09 06:11:48;;;;;;;3.55;3.30;;;;;;;35.48;50.84;100459.78;5046097;28;66397;-38
2022/06/09 06:14:19;;;;;;;;;;;;;;;35.20;50.99;100460.94;5046669;28;69963;-37
2022/06/09 06:16:51;;;;;;;3.50;3.30;;;;;;;35.50;50.30;100451.34;5047499;28;66177;-38
2022/06/09 06:19:23;;;;;;;3.85;3.58;;;;;;;35.49;50.46;100431.41;5043461;28;69245;-38
2022/06/09 06:21:54;;;;;;;3.65;3.45;;;;;;;35.63;50.51;100436.44;5043781;28;65639;-37
2022/06/09 06:24:25;;;;;;;3.78;3.58;;;;;;;35.64;50.47;100438.09;5038767;28;69223;-38
2022/06/09 06:26:56;;;;;;;3.97;3.67;;;;;;;35.67;50.50;100440.31;5043220;28;67538;-39
2022/06/09 06:29:28;;;;;;;3.72;3.53;;;;;;;35.76;50.22;100438.69;5043850;28;69851;-38
2022/06/09 06:31:58;;;;;;;;;;;;;;;35.50;50.09;100433.06;5046014;28;65516;-38
2022/06/09 06:34:29;;;;;;;3.67;3.42;;;;;;;35.83;49.81;100425.66;5044246;28;69821;-37
2022/06/09 06:37:00;;;;;;;4.60;3.33;;;;;;;35.77;49.67;100407.59;5044221;28;66854;-38
2022/06/09 06:39:31;;;;;;;4.03;3.63;;;;;;;35.93;50.07;100422.16;5050597;28;69970;-38
2022/06/09 06:42:02;;;;;;;3.30;3.10;;;;;;;35.94;49.81;100419.16;5053854;28;65032;-38
2022/06/09 06:44:37;;;;;;;3.53;3.20;;;;;;;36.03;49.79;100417.56;5041249;28;69874;-38
2022/06/09 06:47:08;;;;;;;3.03;2.70;;;;;;;35.99;49.26;100400.06;5054030;28;65828;-38
2022/06/09 06:49:38;;;;;;;3.47;3.17;;;;;;;36.11;49.68;100409.94;5052850;28;69961;-37
2022/06/09 06:52:09;;;;;;;3.23;2.93;;;;;;;36.17;48.97;100403.44;5043988;28;65816;-38
2022/06/09 06:54:40;;;;;;;3.33;3.13;;;;;;;36.21;49.66;100412.72;5047769;28;69853;-38
2022/06/09 06:57:11;;;;;;;4.43;3.00;;;;;;;36.25;49.47;100402.94;5041595;28;66166;-37
2022/06/09 06:59:41;;;;;;;3.00;2.78;;;;;;;36.30;49.04;100402.91;5047523;28;71280;-37
2022/06/09 07:02:18;;;;;;;2.80;2.60;;;;;;;36.35;48.57;100405.66;5051285;28;65967;-38
2022/06/09 07:05:09;;;;;;;3.03;2.83;;;;;;;36.38;48.56;100405.13;5049165;28;70015;-39
2022/06/09 07:07:40;;;;;;;3.33;3.10;;;;;;;36.41;48.49;100399.16;5052004;28;66222;-39
2022/06/09 07:10:13;;;;;;;2.60;2.40;;;;;;;36.38;48.69;100387.91;5045053;28;70009;-44
2022/06/09 07:12:44;;;;;;;2.95;2.70;;;;;;;36.50;48.51;100395.84;5046825;28;66212;-43
2022/06/09 07:15:17;;;;;;;4.65;3.17;;;;;;;36.53;48.40;100395.34;5051519;28;69214;-38
2022/06/09 07:17:48;;;;;;;2.95;2.45;;;;;;;36.54;48.44;100386.06;5049508;28;65990;-38
2022/06/09 07:20:19;;;;;;;3.00;2.70;;;;;;;36.47;48.30;100373.47;5047757;28;69368;-38
2022/06/09 07:22:50;;;;;;;;;;;;;;;36.34;48.53;100384.09;5043039;28;66372;-38
2022/06/09 07:25:23;;;;;;;2.63;2.42;;;;;;;36.61;48.22;100386.63;5052034;28;69460;-38
2022/06/09 07:27:55;;;;;;;2.70;2.50;;;;;;;36.67;48.36;100380.09;5045507;28;65392;-38
2022/06/09 07:30:27;;;;;;;2.40;2.20;;;;;;;36.70;48.33;100368.63;5053749;28;70418;-38
2022/06/09 07:32:58;;;;;;;4.00;2.63;;;;;;;36.74;47.89;100364.22;5048864;28;66207;-38
2022/06/09 07:35:33;;;;;;;2.58;2.38;;;;;;;36.76;47.80;100367.50;5046383;28;69940;-38
2022/06/09 07:38:06;;;;;;;2.63;2.42;;;;;;;36.78;47.84;100359.88;5048790;28;66357;-39
2022/06/09 07:40:39;;;;;;;2.53;2.22;;;;;;;36.79;47.68;100369.69;5052971;28;69346;-38
2022/06/09 07:43:11;;;;;;;2.42;2.20;;;;;;;36.83;47.99;100362.59;5049891;28;66436;-38
2022/06/09 07:45:43;;;;;;;2.58;2.33;;;;;;;36.85;47.56;100360.41;5041645;28;69469;-39
2022/06/09 07:48:14;;;;;;;4.32;2.33;;;;;;;36.89;47.29;100360.69;5044912;28;65868;-38
2022/06/09 07:51:09;;;;;;;3.72;2.58;;;;;;;36.91;47.68;100347.53;5043364;28;70457;-38
2022/06/09 07:53:40;;;;;;;2.80;2.47;;;;;;;36.83;47.51;100340.75;5052672;28;66267;-38
2022/06/09 07:56:11;;;;;;;2.35;2.15;;;;;;;36.93;48.06;100344.56;5047917;28;69726;-38
2022/06/09 07:58:42;;;;;;;4.63;2.17;;;;;;;36.91;47.63;100342.91;5043438;28;65709;-37
2022/06/09 08:01:14;;;;;;;3.58;2.38;;;;;;;36.95;47.35;100342.38;5047401;28;70084;-38
2022/06/09 08:03:46;;;;;;;2.78;2.45;;;;;;;36.97;47.86;100330.06;5049336;28;65661;-38
2022/06/09 08:06:17;;;;;;;2.65;2.15;;;;;;;36.94;48.07;100327.03;5057120;27;69922;-38
2022/06/09 08:08:56;;;;;;;2.78;2.58;;;;;;;36.76;47.88;100287.44;5051196;28;66299;-38
2022/06/09 08:11:37;;;;;;;2.88;1.88;;;;;;;36.78;47.68;100291.53;5048407;28;69830;-38
2022/06/09 08:14:09;;;;;;;2.10;1.98;;;;;;;36.97;47.46;100307.34;5050735;28;66618;-38
2022/06/09 08:16:41;;;;;;;1.98;1.88;;;;;;;37.01;47.69;100313.94;5050760;28;70456;-38
2022/06/09 08:19:11;;;;;;;6.10;2.30;;;;;;;37.03;47.89;100307.13;5043294;28;65654;-38
2022/06/09 08:21:43;;;;;;;2.38;2.17;;;;;;;37.02;48.07;100304.66;5042020;28;70041;-38
2022/06/09 08:24:23;;;;;;;4.95;2.58;;;;;;;36.86;47.65;100274.59;5053246;28;66192;-38
2022/06/09 08:26:54;;;;;;;2.22;2.03;;;;;;;37.03;47.73;100306.31;5042978;28;69918;-38
2022/06/09 08:29:26;;;;;;;3.00;1.95;;;;;;;37.05;47.57;100304.09;5044422;28;67871;-39
2022/06/09 08:31:56;;;;;;;;;;;;;;;36.75;48.29;100294.84;5041978;28;69908;-38
2022/06/09 08:34:28;;;;;;;3.03;2.07;;;;;;;37.01;47.92;100308.47;5045779;28;65528;-38
2022/06/09 08:36:59;;;;;;;2.03;1.73;;;;;;;37.01;47.71;100298.38;5047014;28;70554;-38
2022/06/09 08:39:30;;;;;;;2.92;1.98;;;;;;;37.02;47.81;100304.66;5048099;28;65941;-38
2022/06/09 08:42:15;;;;;;;3.25;2.15;;;;;;;36.98;47.70;100298.09;5051286;28;69138;-38
2022/06/09 08:45:18;;;;;;;2.45;1.85;;;;;;;36.93;47.25;100290.69;5047233;28;65496;-38
2022/06/09 08:47:55;;;;;;;1.83;1.52;;;;;;;36.98;47.00;100292.63;5044578;28;69438;-38
2022/06/09 08:50:33;;;;;;;5.65;1.80;;;;;;;37.08;47.51;100298.91;5050366;28;66362;-38
2022/06/09 08:53:27;;;;;;;2.78;1.98;;;;;;;36.67;47.27;100255.22;5044390;28;70298;-39
2022/06/09 08:56:12;;;;;;;2.15;1.95;;;;;;;37.07;47.06;100307.38;5046309;28;66115;-39
2022/06/09 08:58:52;;;;;;;2.30;1.85;;;;;;;36.96;47.77;100279.22;5041421;28;70026;-39
2022/06/09 09:01:49;;;;;;;2.65;2.03;;;;;;;36.44;47.51;100198.34;5050867;28;66354;-38
2022/06/09 09:04:22;;;;;;;3.60;1.73;;;;;;;37.07;47.84;100299.19;5056044;28;70578;-38
2022/06/09 09:07:13;;;;;;;3.47;2.03;;;;;;;36.63;47.39;100223.22;5047757;28;64995;-38
2022/06/09 09:09:45;;;;;;;4.85;2.25;;;;;;;37.07;47.84;100285.50;5039773;28;70400;-39
2022/06/09 09:12:31;;;;;;;2.72;1.98;;;;;;;37.06;47.55;100284.69;5041356;28;65918;-37
2022/06/09 09:15:14;;;;;;;2.10;1.80;;;;;;;37.03;47.09;100289.91;5047822;28;70917;-38
2022/06/09 09:17:50;;;;;;;3.08;2.00;;;;;;;37.05;47.35;100304.09;5047374;28;65733;-37
2022/06/09 09:20:30;;;;;;;4.45;2.10;;;;;;;37.05;47.10;100309.56;5043173;28;70058;-38
2022/06/09 09:23:26;;;;;;;1.48;1.38;;;;;;;36.97;47.79;100315.56;5051924;28;66588;-37
2022/06/09 09:26:21;;;;;;;2.20;2.00;;;;;;;36.76;47.69;100258.19;5043641;28;69140;-37
2022/06/09 09:29:08;;;;;;;7.45;1.70;;;;;;;37.01;47.49;100297.53;5043161;28;66220;-38
2022/06/09 09:31:46;;;;;;;3.70;1.98;;;;;;;37.04;47.14;100302.47;5036716;28;70507;-37
2022/06/09 09:34:23;;;;;;;2.15;1.63;;;;;;;36.99;47.63;100316.09;5047166;28;66472;-38
2022/06/09 09:37:15;;;;;;;2.05;1.90;;;;;;;36.95;47.30;100296.72;5043034;28;70001;-38
2022/06/09 09:40:01;;;;;;;2.60;2.20;;;;;;;36.87;47.09;100291.81;5042336;28;66321;-37
2022/06/09 09:42:34;;;;;;;2.45;2.00;;;;;;;37.00;47.46;100298.59;5059006;28;70468;-37
2022/06/09 09:45:10;;;;;;;2.20;2.00;;;;;;;36.99;47.24;100299.72;5049373;28;65521;-38
2022/06/09 09:47:54;;;;;;;2.33;1.65;;;;;;;36.90;47.74;100292.06;5044145;28;70592;-38
2022/06/09 09:50:32;;;;;;;3.63;1.90;;;;;;;36.93;47.80;100300.81;5047763;28;65657;-38
2022/06/09 09:53:20;;;;;;;1.83;1.52;;;;;;;36.87;47.76;100311.75;5046419;28;70189;-38
2022/06/09 09:55:59;;;;;;;6.15;1.60;;;;;;;36.92;48.01;100332.81;5048390;28;66343;-37
2022/06/09 09:58:34;;;;;;;4.63;2.17;;;;;;;36.92;47.36;100357.41;5038068;28;68944;-39
2022/06/09 10:01:17;;;;;;;3.03;2.05;;;;;;;36.85;47.93;100346.72;5048672;28;66164;-38
2022/06/09 10:10:37;;;;;;;4.07;1.80;;;;;;;36.84;47.56;100379.81;5060017;28;70188;-39
2022/06/09 10:13:17;;;;;;;2.10;1.70;;;;;;;36.81;48.20;100385.84;5047458;28;66535;-38
2022/06/09 10:16:04;;;;;;;4.47;1.70;;;;;;;36.81;48.29;100374.91;5051918;28;70248;-39
2022/06/09 10:18:54;;;;;;;2.90;1.60;;;;;;;36.80;47.68;100379.53;5003518;28;66301;-38
2022/06/09 10:21:56;;;;;;;2.78;1.90;;;;;;;36.38;48.12;100349.69;5009919;28;69184;-37
2022/06/09 10:24:50;;;;;;;;;;;;;;;36.45;48.36;100402.97;5007172;28;65485;-40
2022/06/09 10:27:28;;;;;;;4.88;1.80;;;;;;;36.67;48.64;100385.56;5008644;28;68784;-38
2022/06/09 10:30:20;;;;;;;2.67;2.20;;;;;;;36.63;48.14;100401.66;4992812;28;65715;-38
2022/06/09 10:33:39;;;;;;;3.90;1.98;;;;;;;36.56;48.94;100406.56;5003948;28;69034;-37
2022/06/09 10:36:15;;;;;;;2.45;1.77;;;;;;;36.68;48.43;100403.56;5003086;28;66404;-38
2022/06/09 10:38:51;;;;;;;5.00;1.88;;;;;;;36.34;48.34;100343.94;5015610;28;70222;-38
2022/06/09 10:41:36;;;;;;;3.72;2.15;;;;;;;36.27;49.46;100398.00;5015020;28;66338;-37
2022/06/09 10:44:22;;;;;;;3.08;2.00;;;;;;;36.16;51.50;100426.34;4995403;28;69606;-37
2022/06/09 10:56:04;;;;;;;8.40;3.13;;;;;;;35.67;54.46;100432.94;5016678;28;69478;-36
2022/06/09 10:58:49;;;;;;;5.05;3.45;;;;;;;35.68;55.37;100431.00;5044410;28;66549;-36
2022/06/09 11:01:27;;;;;;;10.65;4.25;;;;;;;35.66;56.20;100435.91;5053517;28;70422;-37
2022/06/09 11:04:02;;;;;;;6.13;4.40;;;;;;;35.53;57.24;100421.63;5050304;28;67009;-37
2022/06/09 11:06:49;;;;;;;6.68;4.25;;;;;;;35.58;57.31;100435.34;5029393;28;69944;-38
2022/06/09 11:09:38;;;;;;;9.57;4.50;;;;;;;35.53;57.51;100421.63;5048353;28;65288;-39
2022/06/09 11:12:29;;;;;;;12.15;4.28;;;;;;;35.54;58.32;100422.44;5045930;28;70193;-39
2022/06/09 11:15:09;;;;;;;12.60;5.18;;;;;;;35.61;58.67;100411.31;5050569;28;66217;-38
2022/06/09 11:17:43;;;;;;;15.48;4.78;;;;;;;35.79;57.72;100413.63;5045602;28;70083;-39
2022/06/09 11:20:31;;;;;;;7.28;4.65;;;;;;;35.86;56.97;100413.38;5049823;28;66292;-38
2022/06/09 11:23:20;;;;;;;11.32;4.68;;;;;;;35.92;57.07;100417.78;5052335;28;69209;-39
2022/06/09 11:26:03;;;;;;;5.78;4.72;;;;;;;36.01;56.15;100425.19;5047289;28;66083;-38
2022/06/09 11:28:51;;;;;;;5.55;4.30;;;;;;;36.02;55.88;100435.03;5049439;28;69393;-39
2022/06/09 11:31:25;;;;;;;10.18;4.82;;;;;;;36.15;55.98;100449.31;5042966;28;66536;-38
2022/06/09 11:34:07;;;;;;;10.73;5.05;;;;;;;36.14;56.10;100448.47;5044057;28;69872;-38
2022/06/09 11:37:02;;;;;;;11.85;5.28;;;;;;;36.22;55.70;100449.88;5048643;28;66454;-38
2022/06/09 11:39:36;;;;;;;6.22;4.47;;;;;;;36.22;55.58;100466.28;5042545;28;69532;-38
2022/06/09 11:42:31;;;;;;;6.18;5.22;;;;;;;36.16;55.43;100468.16;5048023;28;66200;-39
2022/06/09 11:45:23;;;;;;;7.75;5.03;;;;;;;36.05;55.75;100444.59;5049398;28;69922;-38
2022/06/09 11:47:57;;;;;;;6.07;5.43;;;;;;;36.26;55.25;100464.63;5044863;28;66589;-38
2022/06/09 11:50:43;;;;;;;11.52;6.13;;;;;;;36.19;55.77;100469.50;5042552;28;69882;-38
2022/06/09 11:53:23;;;;;;;6.30;5.70;;;;;;;36.24;55.50;100484.00;5055541;28;65624;-39
2022/06/09 11:56:34;;;;;;;12.80;6.00;;;;;;;36.16;55.26;100494.63;5043697;28;69976;-38
2022/06/09 11:59:17;;;;;;;6.85;6.15;;;;;;;36.03;55.11;100465.88;5041744;28;66109;-38
2022/06/09 12:02:19;;;;;;;7.35;5.97;;;;;;;35.88;55.21;100442.03;5042547;28;70167;-38
2022/06/09 12:05:08;;;;;;;;;;;;;;;35.90;56.67;100489.00;5027555;28;65247;-38
2022/06/09 12:07:42;;;;;;;8.13;6.53;;;;;;;36.10;56.69;100488.31;5043422;28;69863;-38
2022/06/09 12:10:33;;;;;;;9.27;7.65;;;;;;;35.85;58.54;100488.97;5044081;28;65171;-38
2022/06/09 12:13:12;;;;;;;12.43;7.78;;;;;;;35.69;59.63;100500.84;5041465;28;70387;-39
2022/06/09 12:15:58;;;;;;;15.18;8.55;;;;;;;35.62;60.01;100505.75;5042478;28;65648;-39
2022/06/09 12:18:37;;;;;;;16.52;9.85;;;;;;;35.56;60.51;100519.34;5052066;28;70471;-37
2022/06/09 12:21:10;;;;;;;21.40;10.80;;;;;;;35.46;60.25;100530.13;5045027;28;66119;-37
2022/06/09 12:24:22;;;;;;;19.35;10.90;;;;;;;35.22;61.91;100534.28;5049816;28;69053;-37
2022/06/09 12:27:01;;;;;;;16.70;10.63;;;;;;;35.11;58.68;100545.09;5040538;28;66251;-38
2022/06/09 12:29:34;;;;;;;13.02;11.05;;;;;;;34.87;55.18;100543.72;5041123;28;69799;-38
2022/06/09 12:32:08;;;;;;;13.93;10.57;;;;;;;34.66;52.96;100548.94;5044940;28;66757;-36